Gordon, WV (25093)

4:27 AM EDT on July 28, 2014 (GMT -0400)
Joes Creek (KWVCOMFO3) Elev 784 ft | 38.12 °N, 81.59 °W | Change Station

Current weather conditions updated 1 minute ago

Clear
Clear
64.2 °F
Feels Like 64.2 °F
N
0.0
Wind Variable Wind from WSW
Gusts 0.0 mph

Today is forecast to be Much Cooler than yesterday.

Today
High -- | Low -- °F
--% Chance of Precip.
Yesterday
High -- | Low -- °F
Precip. -- in
6:26 AM 8:39 PM
New Moon, 2% visible
Pressure 29.75 in
Visibility 10.0 miles
Clouds Clear
Dew Point 64 °F
Humidity 98%
Rainfall 0.04 in
Snow Depth Not available.
UV 0 out of 12
Pollen .70 out of 12
Air Quality Not available.
Flu Activity Not available.
METAR KCRW 280754Z 24011KT 10SM CLR 21/19 A2978 RMK AO2 SLP073 T02060189 $

More Conditions Fewer Conditions

Pressure 29.75 in
Visibility 10.0 miles
Clouds Clear
Dew Point 64 °F
Humidity 98%
Rainfall 0.04 in
Snow Depth Not available.
UV 0 out of 12
Pollen .70 out of 12
Air Quality Not available.
Flu Activity Not available.
METAR KCRW 280754Z 24011KT 10SM CLR 21/19 A2978 RMK AO2 SLP073 T02060189 $

More Conditions Fewer Conditions

10-Day Weather Forecast

Almanac

Astronomy

Jul. 28, 2014 Rise Set
Actual Time 6:26 AM EDT 8:39 PM EDT
Civil Twilight 5:56 AM EDT 9:09 PM EDT
Nautical Twilight 5:20 AM EDT 9:45 PM EDT
Astronomical Twilight 4:40 AM EDT 10:24 PM EDT
Moon 8:04 AM EDT 9:23 PM EDT
Length of Visible Light 15h 12m
Length of Day
14h 13m
Tomorrow will be 1m 44s shorter.
New Moon, 2% of the Moon is Illuminated
Today
New Moon
Aug 3
First Quarter
Aug 10
Full
Aug 17
Last Quarter
Aug 25
New

Today's Extremes

State Highs State Lows

Community

WunderPhotos

Upload Photos

1,738,294 photos uploaded!

Nearby

Snow Depth

Station Depth Elevation
No new snow has been reported.

Earthquake Activity

City Distance Mag. Time & Date
No recent earthquake activity has been reported nearby.
Minimum magnitude displayed is 2.5.

Coastal Water Temperatures

Place Temperature
No Stations Reporting

Nearby Weather Stations

Station Location Temp. Dew Point Humidity Wind Precip. Elev Updated Type
APRSWXNET Comfort WV , Bloomingrose, WV 66 °F 65 °F 98% SW  at  0 mph 0.00 in / hr 692 ft 3:16 AM EDT MADIS
Joes Creek, Comfort, WV 64.2 °F 64 °F 98% WSW  at  0.0 mph 0.00 in / hr 784 ft 4:26 AM EDT Rapid Fire
Burl's Weather, 314 Shawnee Circle,Switz, Rossmore, WV 68.9 °F 68 °F 98% SE  at  0.0 mph 0.00 in / hr 722 ft 4:27 AM EDT Rapid Fire
SOD, Sod, WV 65.6 °F 65 °F 97% East  at  0.0 mph 0.00 in / hr 771 ft 4:27 AM EDT Rapid Fire

Show More Stations Show Fewer Stations